sensor_id;sensor_type;location;lat;lon;timestamp;temperature;humidity
30069;DHT22;16894;49.456;10.644;2022-07-29T00:02:21;19.30;75.80
30069;DHT22;16894;49.456;10.644;2022-07-29T00:04:47;19.40;75.70
30069;DHT22;16894;49.456;10.644;2022-07-29T00:07:13;19.40;75.00
30069;DHT22;16894;49.456;10.644;2022-07-29T00:09:38;19.40;75.50
30069;DHT22;16894;49.456;10.644;2022-07-29T00:12:04;19.40;75.40
30069;DHT22;16894;49.456;10.644;2022-07-29T00:14:30;19.30;75.00
30069;DHT22;16894;49.456;10.644;2022-07-29T00:16:55;19.40;75.60
30069;DHT22;16894;49.456;10.644;2022-07-29T00:19:21;19.40;74.70
30069;DHT22;16894;49.456;10.644;2022-07-29T00:21:47;19.40;75.50
30069;DHT22;16894;49.456;10.644;2022-07-29T00:24:12;19.40;74.90
30069;DHT22;16894;49.456;10.644;2022-07-29T00:26:38;19.50;74.80
30069;DHT22;16894;49.456;10.644;2022-07-29T00:29:04;19.50;75.10
30069;DHT22;16894;49.456;10.644;2022-07-29T00:31:30;19.50;75.10
30069;DHT22;16894;49.456;10.644;2022-07-29T00:33:56;19.50;75.90
30069;DHT22;16894;49.456;10.644;2022-07-29T00:36:22;19.50;74.40
30069;DHT22;16894;49.456;10.644;2022-07-29T00:38:49;19.50;75.50
30069;DHT22;16894;49.456;10.644;2022-07-29T00:41:15;19.50;75.30
30069;DHT22;16894;49.456;10.644;2022-07-29T00:43:41;19.40;76.10
30069;DHT22;16894;49.456;10.644;2022-07-29T00:46:07;19.40;76.60
30069;DHT22;16894;49.456;10.644;2022-07-29T00:48:32;19.30;76.20
30069;DHT22;16894;49.456;10.644;2022-07-29T00:51:00;19.30;76.40
30069;DHT22;16894;49.456;10.644;2022-07-29T00:53:26;19.30;76.50
30069;DHT22;16894;49.456;10.644;2022-07-29T00:55:55;19.30;76.70
30069;DHT22;16894;49.456;10.644;2022-07-29T00:58:22;19.30;77.20
30069;DHT22;16894;49.456;10.644;2022-07-29T01:00:48;19.20;77.70
30069;DHT22;16894;49.456;10.644;2022-07-29T01:03:13;18.90;78.10
30069;DHT22;16894;49.456;10.644;2022-07-29T01:05:41;18.90;77.30
30069;DHT22;16894;49.456;10.644;2022-07-29T01:08:08;18.90;77.70
30069;DHT22;16894;49.456;10.644;2022-07-29T01:10:38;18.80;77.20
30069;DHT22;16894;49.456;10.644;2022-07-29T01:13:04;18.90;78.70
30069;DHT22;16894;49.456;10.644;2022-07-29T01:15:30;18.90;78.50
30069;DHT22;16894;49.456;10.644;2022-07-29T01:29:05;18.80;78.70
30069;DHT22;16894;49.456;10.644;2022-07-29T01:31:42;18.80;78.60
30069;DHT22;16894;49.456;10.644;2022-07-29T01:34:11;18.80;80.10
30069;DHT22;16894;49.456;10.644;2022-07-29T01:36:45;18.70;79.90
30069;DHT22;16894;49.456;10.644;2022-07-29T01:42:01;18.70;80.00
30069;DHT22;16894;49.456;10.644;2022-07-29T01:45:03;18.70;80.30
30069;DHT22;16894;49.456;10.644;2022-07-29T01:47:37;18.40;81.00
30069;DHT22;16894;49.456;10.644;2022-07-29T01:50:07;18.30;82.30
30069;DHT22;16894;49.456;10.644;2022-07-29T01:52:42;18.20;82.10
30069;DHT22;16894;49.456;10.644;2022-07-29T01:55:20;18.10;81.30
30069;DHT22;16894;49.456;10.644;2022-07-29T01:57:48;18.00;82.40
30069;DHT22;16894;49.456;10.644;2022-07-29T02:00:15;18.00;82.40
30069;DHT22;16894;49.456;10.644;2022-07-29T02:02:43;18.00;82.50
30069;DHT22;16894;49.456;10.644;2022-07-29T02:05:12;18.00;82.70
30069;DHT22;16894;49.456;10.644;2022-07-29T02:07:40;17.90;82.30
30069;DHT22;16894;49.456;10.644;2022-07-29T02:10:08;17.80;82.90
30069;DHT22;16894;49.456;10.644;2022-07-29T02:12:35;17.80;84.10
30069;DHT22;16894;49.456;10.644;2022-07-29T02:15:03;17.70;84.50
30069;DHT22;16894;49.456;10.644;2022-07-29T02:17:35;17.70;84.50
30069;DHT22;16894;49.456;10.644;2022-07-29T02:20:03;17.70;84.50
30069;DHT22;16894;49.456;10.644;2022-07-29T02:22:31;17.60;84.90
30069;DHT22;16894;49.456;10.644;2022-07-29T02:24:59;17.60;85.80
30069;DHT22;16894;49.456;10.644;2022-07-29T02:27:26;17.60;85.80
30069;DHT22;16894;49.456;10.644;2022-07-29T02:29:54;17.60;86.40
30069;DHT22;16894;49.456;10.644;2022-07-29T02:32:24;17.40;87.20
30069;DHT22;16894;49.456;10.644;2022-07-29T02:34:51;17.30;87.90
30069;DHT22;16894;49.456;10.644;2022-07-29T02:37:17;17.20;87.70
30069;DHT22;16894;49.456;10.644;2022-07-29T02:39:44;17.10;89.10
30069;DHT22;16894;49.456;10.644;2022-07-29T02:42:15;17.00;89.50
30069;DHT22;16894;49.456;10.644;2022-07-29T02:44:41;17.00;90.10
30069;DHT22;16894;49.456;10.644;2022-07-29T02:47:21;17.00;90.30
30069;DHT22;16894;49.456;10.644;2022-07-29T02:50:20;17.00;90.20
30069;DHT22;16894;49.456;10.644;2022-07-29T02:52:57;17.00;90.30
30069;DHT22;16894;49.456;10.644;2022-07-29T02:58:30;16.70;91.10
30069;DHT22;16894;49.456;10.644;2022-07-29T03:01:08;16.60;91.30
30069;DHT22;16894;49.456;10.644;2022-07-29T03:03:37;16.50;92.10
30069;DHT22;16894;49.456;10.644;2022-07-29T03:06:04;16.50;92.70
30069;DHT22;16894;49.456;10.644;2022-07-29T03:08:32;16.60;92.60
30069;DHT22;16894;49.456;10.644;2022-07-29T03:10:58;16.60;93.10
30069;DHT22;16894;49.456;10.644;2022-07-29T03:13:24;16.60;93.40
30069;DHT22;16894;49.456;10.644;2022-07-29T03:15:50;16.60;93.80
30069;DHT22;16894;49.456;10.644;2022-07-29T03:18:16;16.50;93.90
30069;DHT22;16894;49.456;10.644;2022-07-29T03:20:42;16.50;94.30
30069;DHT22;16894;49.456;10.644;2022-07-29T03:23:09;16.40;94.10
30069;DHT22;16894;49.456;10.644;2022-07-29T03:25:34;16.30;94.40
30069;DHT22;16894;49.456;10.644;2022-07-29T03:28:00;16.30;94.90
30069;DHT22;16894;49.456;10.644;2022-07-29T03:30:26;16.20;95.40
30069;DHT22;16894;49.456;10.644;2022-07-29T03:32:52;16.10;96.20
30069;DHT22;16894;49.456;10.644;2022-07-29T03:35:21;16.10;96.60
30069;DHT22;16894;49.456;10.644;2022-07-29T03:37:48;16.00;97.20
30069;DHT22;16894;49.456;10.644;2022-07-29T03:40:27;16.00;97.40
30069;DHT22;16894;49.456;10.644;2022-07-29T03:42:54;16.00;97.80
30069;DHT22;16894;49.456;10.644;2022-07-29T03:45:21;16.00;97.90
30069;DHT22;16894;49.456;10.644;2022-07-29T03:48:05;15.80;98.20
30069;DHT22;16894;49.456;10.644;2022-07-29T03:50:33;15.80;99.00
30069;DHT22;16894;49.456;10.644;2022-07-29T03:53:00;15.80;99.20
30069;DHT22;16894;49.456;10.644;2022-07-29T03:55:29;15.70;99.20
30069;DHT22;16894;49.456;10.644;2022-07-29T03:57:57;15.70;99.90
30069;DHT22;16894;49.456;10.644;2022-07-29T04:00:25;15.70;99.90
30069;DHT22;16894;49.456;10.644;2022-07-29T04:02:52;15.70;99.90
30069;DHT22;16894;49.456;10.644;2022-07-29T04:05:18;15.70;99.90
30069;DHT22;16894;49.456;10.644;2022-07-29T04:07:45;15.60;99.90
30069;DHT22;16894;49.456;10.644;2022-07-29T04:10:11;15.70;99.90
30069;DHT22;16894;49.456;10.644;2022-07-29T04:12:37;15.70;99.90
30069;DHT22;16894;49.456;10.644;2022-07-29T04:15:04;15.70;99.90
30069;DHT22;16894;49.456;10.644;2022-07-29T04:17:30;15.70;99.90
30069;DHT22;16894;49.456;10.644;2022-07-29T04:19:56;15.70;99.90
30069;DHT22;16894;49.456;10.644;2022-07-29T04:22:21;15.70;99.90
30069;DHT22;16894;49.456;10.644;2022-07-29T04:24:47;15.60;99.90
30069;DHT22;16894;49.456;10.644;2022-07-29T04:27:12;15.60;99.90
30069;DHT22;16894;49.456;10.644;2022-07-29T04:29:38;15.60;99.90
30069;DHT22;16894;49.456;10.644;2022-07-29T04:32:04;15.60;99.90
30069;DHT22;16894;49.456;10.644;2022-07-29T04:34:30;15.60;99.90
30069;DHT22;16894;49.456;10.644;2022-07-29T04:36:55;15.70;99.90
30069;DHT22;16894;49.456;10.644;2022-07-29T04:39:21;15.70;99.90
30069;DHT22;16894;49.456;10.644;2022-07-29T04:41:47;15.80;99.90
30069;DHT22;16894;49.456;10.644;2022-07-29T04:44:13;15.70;99.90
30069;DHT22;16894;49.456;10.644;2022-07-29T04:46:38;15.70;99.90
30069;DHT22;16894;49.456;10.644;2022-07-29T04:49:04;15.70;99.90
30069;DHT22;16894;49.456;10.644;2022-07-29T04:51:30;15.60;99.90
30069;DHT22;16894;49.456;10.644;2022-07-29T04:53:55;15.60;99.90
30069;DHT22;16894;49.456;10.644;2022-07-29T04:56:21;15.70;99.90
30069;DHT22;16894;49.456;10.644;2022-07-29T04:58:47;15.70;99.90
30069;DHT22;16894;49.456;10.644;2022-07-29T05:01:13;15.60;99.90
30069;DHT22;16894;49.456;10.644;2022-07-29T05:03:40;15.60;99.90
30069;DHT22;16894;49.456;10.644;2022-07-29T05:06:05;15.60;99.90
30069;DHT22;16894;49.456;10.644;2022-07-29T05:08:31;15.60;99.90
30069;DHT22;16894;49.456;10.644;2022-07-29T05:10:56;15.60;99.90
30069;DHT22;16894;49.456;10.644;2022-07-29T05:13:22;15.70;99.90
30069;DHT22;16894;49.456;10.644;2022-07-29T05:15:48;15.60;99.90
30069;DHT22;16894;49.456;10.644;2022-07-29T05:18:13;15.70;99.90
30069;DHT22;16894;49.456;10.644;2022-07-29T05:20:39;15.70;99.90
30069;DHT22;16894;49.456;10.644;2022-07-29T05:23:05;15.70;99.90
30069;DHT22;16894;49.456;10.644;2022-07-29T05:25:30;15.70;99.90
30069;DHT22;16894;49.456;10.644;2022-07-29T05:27:57;15.70;99.90
30069;DHT22;16894;49.456;10.644;2022-07-29T05:30:23;15.70;99.90
30069;DHT22;16894;49.456;10.644;2022-07-29T05:32:48;15.70;99.90
30069;DHT22;16894;49.456;10.644;2022-07-29T05:35:14;15.80;99.90
30069;DHT22;16894;49.456;10.644;2022-07-29T05:37:40;15.80;99.90
30069;DHT22;16894;49.456;10.644;2022-07-29T05:40:07;15.90;99.90
30069;DHT22;16894;49.456;10.644;2022-07-29T05:42:33;15.90;99.90
30069;DHT22;16894;49.456;10.644;2022-07-29T05:44:59;16.00;99.90
30069;DHT22;16894;49.456;10.644;2022-07-29T05:47:25;16.00;99.90
30069;DHT22;16894;49.456;10.644;2022-07-29T05:49:51;16.00;99.90
30069;DHT22;16894;49.456;10.644;2022-07-29T05:52:16;16.00;99.90
30069;DHT22;16894;49.456;10.644;2022-07-29T05:54:43;16.10;99.90
30069;DHT22;16894;49.456;10.644;2022-07-29T05:57:14;16.10;99.90
30069;DHT22;16894;49.456;10.644;2022-07-29T05:59:40;16.20;99.90
30069;DHT22;16894;49.456;10.644;2022-07-29T06:02:06;16.30;99.90
30069;DHT22;16894;49.456;10.644;2022-07-29T06:04:32;16.40;99.90
30069;DHT22;16894;49.456;10.644;2022-07-29T06:06:58;16.50;99.90
30069;DHT22;16894;49.456;10.644;2022-07-29T06:09:24;16.60;99.90
30069;DHT22;16894;49.456;10.644;2022-07-29T06:11:49;16.70;99.90
30069;DHT22;16894;49.456;10.644;2022-07-29T06:14:15;16.80;99.90
30069;DHT22;16894;49.456;10.644;2022-07-29T06:16:41;17.00;99.90
30069;DHT22;16894;49.456;10.644;2022-07-29T06:19:07;17.30;99.90
30069;DHT22;16894;49.456;10.644;2022-07-29T06:21:33;17.40;99.40
30069;DHT22;16894;49.456;10.644;2022-07-29T06:23:59;17.60;99.00
30069;DHT22;16894;49.456;10.644;2022-07-29T06:26:25;17.80;99.00
30069;DHT22;16894;49.456;10.644;2022-07-29T06:28:50;18.00;98.60
30069;DHT22;16894;49.456;10.644;2022-07-29T06:31:19;18.20;98.20
30069;DHT22;16894;49.456;10.644;2022-07-29T06:33:45;18.40;98.10
30069;DHT22;16894;49.456;10.644;2022-07-29T06:36:10;18.50;98.10
30069;DHT22;16894;49.456;10.644;2022-07-29T06:38:36;18.60;97.70
30069;DHT22;16894;49.456;10.644;2022-07-29T06:41:03;18.80;97.30
30069;DHT22;16894;49.456;10.644;2022-07-29T06:43:38;19.00;97.10
30069;DHT22;16894;49.456;10.644;2022-07-29T06:46:17;19.20;96.90
30069;DHT22;16894;49.456;10.644;2022-07-29T06:48:44;19.40;96.80
30069;DHT22;16894;49.456;10.644;2022-07-29T06:51:10;19.60;96.30
30069;DHT22;16894;49.456;10.644;2022-07-29T06:53:37;19.90;96.40
30069;DHT22;16894;49.456;10.644;2022-07-29T06:56:04;20.10;96.90
30069;DHT22;16894;49.456;10.644;2022-07-29T06:58:30;20.20;96.40
30069;DHT22;16894;49.456;10.644;2022-07-29T07:00:58;20.40;95.90
30069;DHT22;16894;49.456;10.644;2022-07-29T07:03:26;20.50;95.50
30069;DHT22;16894;49.456;10.644;2022-07-29T07:05:52;20.80;95.40
30069;DHT22;16894;49.456;10.644;2022-07-29T07:08:19;21.10;95.10
30069;DHT22;16894;49.456;10.644;2022-07-29T07:10:44;21.30;95.00
30069;DHT22;16894;49.456;10.644;2022-07-29T07:13:11;21.50;94.40
30069;DHT22;16894;49.456;10.644;2022-07-29T07:15:37;21.60;94.30
30069;DHT22;16894;49.456;10.644;2022-07-29T07:18:04;21.70;93.50
30069;DHT22;16894;49.456;10.644;2022-07-29T07:20:31;21.90;92.90
30069;DHT22;16894;49.456;10.644;2022-07-29T07:22:57;22.10;93.10
30069;DHT22;16894;49.456;10.644;2022-07-29T07:25:22;22.30;92.70
30069;DHT22;16894;49.456;10.644;2022-07-29T07:27:48;22.50;92.40
30069;DHT22;16894;49.456;10.644;2022-07-29T07:30:14;22.70;91.40
30069;DHT22;16894;49.456;10.644;2022-07-29T07:32:39;22.90;91.40
30069;DHT22;16894;49.456;10.644;2022-07-29T07:35:07;23.10;90.70
30069;DHT22;16894;49.456;10.644;2022-07-29T07:37:34;23.30;90.10
30069;DHT22;16894;49.456;10.644;2022-07-29T07:40:00;23.40;89.40
30069;DHT22;16894;49.456;10.644;2022-07-29T07:42:26;23.50;89.40
30069;DHT22;16894;49.456;10.644;2022-07-29T07:44:51;23.70;88.40
30069;DHT22;16894;49.456;10.644;2022-07-29T07:47:18;23.90;87.60
30069;DHT22;16894;49.456;10.644;2022-07-29T07:49:48;24.00;86.40
30069;DHT22;16894;49.456;10.644;2022-07-29T07:52:15;24.10;84.70
30069;DHT22;16894;49.456;10.644;2022-07-29T07:54:43;24.20;84.40
30069;DHT22;16894;49.456;10.644;2022-07-29T07:57:13;24.40;83.90
30069;DHT22;16894;49.456;10.644;2022-07-29T07:59:39;24.60;83.90
30069;DHT22;16894;49.456;10.644;2022-07-29T08:02:05;24.80;83.10
30069;DHT22;16894;49.456;10.644;2022-07-29T08:04:32;25.00;80.60
30069;DHT22;16894;49.456;10.644;2022-07-29T08:07:01;25.00;79.80
30069;DHT22;16894;49.456;10.644;2022-07-29T08:09:28;25.30;79.60
30069;DHT22;16894;49.456;10.644;2022-07-29T08:11:55;25.60;79.00
30069;DHT22;16894;49.456;10.644;2022-07-29T08:14:21;25.70;78.00
30069;DHT22;16894;49.456;10.644;2022-07-29T08:16:47;25.80;77.10
30069;DHT22;16894;49.456;10.644;2022-07-29T08:19:13;26.00;76.80
30069;DHT22;16894;49.456;10.644;2022-07-29T08:21:39;26.50;76.00
30069;DHT22;16894;49.456;10.644;2022-07-29T08:24:05;26.70;74.00
30069;DHT22;16894;49.456;10.644;2022-07-29T08:26:49;27.10;72.70
30069;DHT22;16894;49.456;10.644;2022-07-29T08:29:15;27.50;72.00
30069;DHT22;16894;49.456;10.644;2022-07-29T08:31:41;27.40;71.80
30069;DHT22;16894;49.456;10.644;2022-07-29T08:34:07;27.40;71.30
30069;DHT22;16894;49.456;10.644;2022-07-29T08:36:34;27.50;70.60
30069;DHT22;16894;49.456;10.644;2022-07-29T08:38:59;27.50;70.20
30069;DHT22;16894;49.456;10.644;2022-07-29T08:41:26;27.50;68.80
30069;DHT22;16894;49.456;10.644;2022-07-29T08:43:52;27.90;69.10
30069;DHT22;16894;49.456;10.644;2022-07-29T08:46:18;27.90;67.70
30069;DHT22;16894;49.456;10.644;2022-07-29T08:48:44;28.50;66.90
30069;DHT22;16894;49.456;10.644;2022-07-29T08:51:13;28.70;66.30
30069;DHT22;16894;49.456;10.644;2022-07-29T08:53:42;28.60;65.90
30069;DHT22;16894;49.456;10.644;2022-07-29T08:56:11;28.70;64.10
30069;DHT22;16894;49.456;10.644;2022-07-29T08:58:41;28.70;63.50
30069;DHT22;16894;49.456;10.644;2022-07-29T09:01:07;29.20;63.50
30069;DHT22;16894;49.456;10.644;2022-07-29T09:03:36;29.50;62.10
30069;DHT22;16894;49.456;10.644;2022-07-29T09:06:04;29.80;61.30
30069;DHT22;16894;49.456;10.644;2022-07-29T09:08:34;29.50;61.70
30069;DHT22;16894;49.456;10.644;2022-07-29T09:11:03;29.00;61.80
30069;DHT22;16894;49.456;10.644;2022-07-29T09:13:29;28.50;62.80
30069;DHT22;16894;49.456;10.644;2022-07-29T09:15:54;28.30;62.10
30069;DHT22;16894;49.456;10.644;2022-07-29T09:18:41;28.00;62.50
30069;DHT22;16894;49.456;10.644;2022-07-29T09:21:08;28.10;63.00
30069;DHT22;16894;49.456;10.644;2022-07-29T09:24:08;27.90;63.40
30069;DHT22;16894;49.456;10.644;2022-07-29T09:26:36;27.70;61.00
30069;DHT22;16894;49.456;10.644;2022-07-29T09:31:41;27.60;61.70
30069;DHT22;16894;49.456;10.644;2022-07-29T09:34:24;27.60;61.40
30069;DHT22;16894;49.456;10.644;2022-07-29T09:36:54;27.90;61.20
30069;DHT22;16894;49.456;10.644;2022-07-29T09:39:38;28.30;61.00
30069;DHT22;16894;49.456;10.644;2022-07-29T09:42:11;28.60;60.80
30069;DHT22;16894;49.456;10.644;2022-07-29T09:44:42;28.90;59.40
30069;DHT22;16894;49.456;10.644;2022-07-29T09:47:08;29.10;58.90
30069;DHT22;16894;49.456;10.644;2022-07-29T09:49:36;28.60;59.70
30069;DHT22;16894;49.456;10.644;2022-07-29T09:52:15;28.50;59.70
30069;DHT22;16894;49.456;10.644;2022-07-29T09:54:40;28.60;59.40
30069;DHT22;16894;49.456;10.644;2022-07-29T09:57:08;29.00;60.00
30069;DHT22;16894;49.456;10.644;2022-07-29T09:59:38;29.80;58.50
30069;DHT22;16894;49.456;10.644;2022-07-29T10:02:14;30.50;56.40
30069;DHT22;16894;49.456;10.644;2022-07-29T10:04:45;30.90;56.20
30069;DHT22;16894;49.456;10.644;2022-07-29T10:07:11;30.90;55.70
30069;DHT22;16894;49.456;10.644;2022-07-29T10:09:52;30.60;55.20
30069;DHT22;16894;49.456;10.644;2022-07-29T10:12:18;30.40;56.40
30069;DHT22;16894;49.456;10.644;2022-07-29T10:14:44;31.30;54.70
30069;DHT22;16894;49.456;10.644;2022-07-29T10:17:11;32.10;54.60
30069;DHT22;16894;49.456;10.644;2022-07-29T10:19:38;32.40;53.00
30069;DHT22;16894;49.456;10.644;2022-07-29T10:22:09;32.40;53.70
30069;DHT22;16894;49.456;10.644;2022-07-29T10:24:37;32.70;52.10
30069;DHT22;16894;49.456;10.644;2022-07-29T10:27:12;33.10;52.70
30069;DHT22;16894;49.456;10.644;2022-07-29T10:29:38;33.30;51.20
30069;DHT22;16894;49.456;10.644;2022-07-29T10:43:37;33.40;49.90
30069;DHT22;16894;49.456;10.644;2022-07-29T10:46:06;33.80;48.60
30069;DHT22;16894;49.456;10.644;2022-07-29T10:48:32;33.80;49.10
30069;DHT22;16894;49.456;10.644;2022-07-29T10:51:06;32.60;49.40
30069;DHT22;16894;49.456;10.644;2022-07-29T10:53:47;32.70;49.80
30069;DHT22;16894;49.456;10.644;2022-07-29T10:56:32;33.20;49.10
30069;DHT22;16894;49.456;10.644;2022-07-29T11:01:54;34.30;48.10
30069;DHT22;16894;49.456;10.644;2022-07-29T11:07:11;34.10;47.80
30069;DHT22;16894;49.456;10.644;2022-07-29T11:09:37;33.70;48.30
30069;DHT22;16894;49.456;10.644;2022-07-29T11:12:45;33.30;47.30
30069;DHT22;16894;49.456;10.644;2022-07-29T11:14:59;33.10;49.00
30069;DHT22;16894;49.456;10.644;2022-07-29T11:17:28;33.70;48.60
30069;DHT22;16894;49.456;10.644;2022-07-29T11:22:58;34.80;46.70
30069;DHT22;16894;49.456;10.644;2022-07-29T11:25:24;34.60;47.00
30069;DHT22;16894;49.456;10.644;2022-07-29T11:28:07;35.10;47.00
30069;DHT22;16894;49.456;10.644;2022-07-29T11:31:00;35.90;46.70
30069;DHT22;16894;49.456;10.644;2022-07-29T11:33:34;36.80;45.60
30069;DHT22;16894;49.456;10.644;2022-07-29T11:36:08;37.40;45.60
30069;DHT22;16894;49.456;10.644;2022-07-29T11:38:34;38.10;43.20
30069;DHT22;16894;49.456;10.644;2022-07-29T11:41:26;37.00;44.10
30069;DHT22;16894;49.456;10.644;2022-07-29T11:43:58;35.40;46.50
30069;DHT22;16894;49.456;10.644;2022-07-29T11:46:47;35.60;45.00
30069;DHT22;16894;49.456;10.644;2022-07-29T11:49:19;36.60;44.30
30069;DHT22;16894;49.456;10.644;2022-07-29T11:51:51;37.70;44.20
30069;DHT22;16894;49.456;10.644;2022-07-29T11:54:23;37.50;43.40
30069;DHT22;16894;49.456;10.644;2022-07-29T11:56:49;37.20;42.30
30069;DHT22;16894;49.456;10.644;2022-07-29T11:59:15;35.40;45.00
30069;DHT22;16894;49.456;10.644;2022-07-29T12:01:58;34.30;45.20
30069;DHT22;16894;49.456;10.644;2022-07-29T12:04:24;34.70;46.50
30069;DHT22;16894;49.456;10.644;2022-07-29T12:06:53;35.80;44.30
30069;DHT22;16894;49.456;10.644;2022-07-29T12:09:19;36.90;43.20
30069;DHT22;16894;49.456;10.644;2022-07-29T12:11:46;37.50;43.10
30069;DHT22;16894;49.456;10.644;2022-07-29T12:14:29;37.30;42.80
30069;DHT22;16894;49.456;10.644;2022-07-29T12:16:56;36.40;43.20
30069;DHT22;16894;49.456;10.644;2022-07-29T12:19:22;35.90;43.50
30069;DHT22;16894;49.456;10.644;2022-07-29T12:21:50;35.20;44.10
30069;DHT22;16894;49.456;10.644;2022-07-29T12:24:18;34.30;44.70
30069;DHT22;16894;49.456;10.644;2022-07-29T12:26:57;33.90;45.50
30069;DHT22;16894;49.456;10.644;2022-07-29T12:29:24;33.90;46.60
30069;DHT22;16894;49.456;10.644;2022-07-29T12:31:53;34.60;46.00
30069;DHT22;16894;49.456;10.644;2022-07-29T12:34:22;35.10;45.10
30069;DHT22;16894;49.456;10.644;2022-07-29T12:36:48;36.10;44.00
30069;DHT22;16894;49.456;10.644;2022-07-29T12:39:18;37.80;42.00
30069;DHT22;16894;49.456;10.644;2022-07-29T12:41:45;39.20;41.20
30069;DHT22;16894;49.456;10.644;2022-07-29T12:44:11;40.10;40.30
30069;DHT22;16894;49.456;10.644;2022-07-29T12:46:36;40.10;39.60
30069;DHT22;16894;49.456;10.644;2022-07-29T12:49:03;39.30;39.90
30069;DHT22;16894;49.456;10.644;2022-07-29T12:51:38;37.90;40.50
30069;DHT22;16894;49.456;10.644;2022-07-29T12:54:07;36.40;41.60
30069;DHT22;16894;49.456;10.644;2022-07-29T12:56:33;35.10;42.90
30069;DHT22;16894;49.456;10.644;2022-07-29T12:58:59;34.30;43.80
30069;DHT22;16894;49.456;10.644;2022-07-29T13:01:25;33.60;44.20
30069;DHT22;16894;49.456;10.644;2022-07-29T13:03:57;33.30;45.80
30069;DHT22;16894;49.456;10.644;2022-07-29T13:06:57;33.50;45.70
30069;DHT22;16894;49.456;10.644;2022-07-29T13:09:23;33.60;44.50
30069;DHT22;16894;49.456;10.644;2022-07-29T13:11:50;33.20;45.00
30069;DHT22;16894;49.456;10.644;2022-07-29T13:14:36;33.20;46.20
30069;DHT22;16894;49.456;10.644;2022-07-29T13:19:39;32.50;46.20
30069;DHT22;16894;49.456;10.644;2022-07-29T13:22:09;32.20;47.30
30069;DHT22;16894;49.456;10.644;2022-07-29T13:24:49;32.00;48.50
30069;DHT22;16894;49.456;10.644;2022-07-29T13:27:20;31.60;47.10
30069;DHT22;16894;49.456;10.644;2022-07-29T13:29:46;30.90;47.50
30069;DHT22;16894;49.456;10.644;2022-07-29T13:32:12;30.30;49.00
30069;DHT22;16894;49.456;10.644;2022-07-29T13:34:39;30.10;50.20
30069;DHT22;16894;49.456;10.644;2022-07-29T13:37:05;29.80;52.60
30069;DHT22;16894;49.456;10.644;2022-07-29T13:39:31;29.10;53.50
30069;DHT22;16894;49.456;10.644;2022-07-29T13:41:56;28.70;55.10
30069;DHT22;16894;49.456;10.644;2022-07-29T13:44:22;28.10;56.80
30069;DHT22;16894;49.456;10.644;2022-07-29T13:46:48;27.70;57.80
30069;DHT22;16894;49.456;10.644;2022-07-29T13:49:13;27.40;58.10
30069;DHT22;16894;49.456;10.644;2022-07-29T13:51:39;27.30;58.50
30069;DHT22;16894;49.456;10.644;2022-07-29T13:54:05;27.00;59.70
30069;DHT22;16894;49.456;10.644;2022-07-29T13:56:30;26.80;61.70
30069;DHT22;16894;49.456;10.644;2022-07-29T13:58:56;26.60;62.60
30069;DHT22;16894;49.456;10.644;2022-07-29T14:01:23;26.50;64.10
30069;DHT22;16894;49.456;10.644;2022-07-29T14:03:49;26.30;64.70
30069;DHT22;16894;49.456;10.644;2022-07-29T14:06:14;26.00;72.00
30069;DHT22;16894;49.456;10.644;2022-07-29T14:08:40;25.40;79.80
30069;DHT22;16894;49.456;10.644;2022-07-29T14:11:06;24.40;89.00
30069;DHT22;16894;49.456;10.644;2022-07-29T14:13:31;23.10;95.70
30069;DHT22;16894;49.456;10.644;2022-07-29T14:15:57;22.00;99.90
30069;DHT22;16894;49.456;10.644;2022-07-29T14:18:23;21.20;99.90
30069;DHT22;16894;49.456;10.644;2022-07-29T14:20:49;20.60;99.90
30069;DHT22;16894;49.456;10.644;2022-07-29T14:23:15;20.10;99.90
30069;DHT22;16894;49.456;10.644;2022-07-29T14:25:40;19.70;99.90
30069;DHT22;16894;49.456;10.644;2022-07-29T14:28:06;19.40;99.90
30069;DHT22;16894;49.456;10.644;2022-07-29T14:30:32;19.20;99.90
30069;DHT22;16894;49.456;10.644;2022-07-29T14:32:58;19.10;99.90
30069;DHT22;16894;49.456;10.644;2022-07-29T14:35:24;19.00;99.90
30069;DHT22;16894;49.456;10.644;2022-07-29T14:37:49;19.00;99.90
30069;DHT22;16894;49.456;10.644;2022-07-29T14:40:15;18.90;99.90
30069;DHT22;16894;49.456;10.644;2022-07-29T14:42:41;18.90;99.90
30069;DHT22;16894;49.456;10.644;2022-07-29T14:45:08;18.80;99.90
30069;DHT22;16894;49.456;10.644;2022-07-29T14:47:34;18.80;99.90
30069;DHT22;16894;49.456;10.644;2022-07-29T14:50:03;18.80;99.90
30069;DHT22;16894;49.456;10.644;2022-07-29T14:52:29;18.60;99.90
30069;DHT22;16894;49.456;10.644;2022-07-29T14:54:55;18.40;99.90
30069;DHT22;16894;49.456;10.644;2022-07-29T14:57:20;18.20;99.90
30069;DHT22;16894;49.456;10.644;2022-07-29T14:59:46;18.10;99.90
30069;DHT22;16894;49.456;10.644;2022-07-29T15:02:12;18.10;99.90
30069;DHT22;16894;49.456;10.644;2022-07-29T15:04:37;18.00;99.90
30069;DHT22;16894;49.456;10.644;2022-07-29T15:07:03;17.90;99.90
30069;DHT22;16894;49.456;10.644;2022-07-29T15:09:29;17.70;99.90
30069;DHT22;16894;49.456;10.644;2022-07-29T15:11:55;17.60;99.90
30069;DHT22;16894;49.456;10.644;2022-07-29T15:14:20;17.50;99.90
30069;DHT22;16894;49.456;10.644;2022-07-29T15:16:46;17.40;99.90
30069;DHT22;16894;49.456;10.644;2022-07-29T15:19:12;17.50;99.90
30069;DHT22;16894;49.456;10.644;2022-07-29T15:21:38;17.70;99.90
30069;DHT22;16894;49.456;10.644;2022-07-29T15:24:03;17.70;99.90
30069;DHT22;16894;49.456;10.644;2022-07-29T15:26:32;17.70;99.90
30069;DHT22;16894;49.456;10.644;2022-07-29T15:28:57;17.70;99.90
30069;DHT22;16894;49.456;10.644;2022-07-29T15:31:23;17.70;99.90
30069;DHT22;16894;49.456;10.644;2022-07-29T15:33:48;17.70;99.90
30069;DHT22;16894;49.456;10.644;2022-07-29T15:36:14;17.60;99.90
30069;DHT22;16894;49.456;10.644;2022-07-29T15:38:40;17.70;99.90
30069;DHT22;16894;49.456;10.644;2022-07-29T15:41:08;17.90;99.90
30069;DHT22;16894;49.456;10.644;2022-07-29T15:43:34;17.90;99.90
30069;DHT22;16894;49.456;10.644;2022-07-29T15:46:01;18.00;99.90
30069;DHT22;16894;49.456;10.644;2022-07-29T15:48:47;18.00;99.90
30069;DHT22;16894;49.456;10.644;2022-07-29T15:51:12;18.00;99.90
30069;DHT22;16894;49.456;10.644;2022-07-29T15:53:38;17.90;99.90
30069;DHT22;16894;49.456;10.644;2022-07-29T15:56:04;17.90;99.90
30069;DHT22;16894;49.456;10.644;2022-07-29T15:58:31;17.90;99.90
30069;DHT22;16894;49.456;10.644;2022-07-29T16:00:56;17.90;99.90
30069;DHT22;16894;49.456;10.644;2022-07-29T16:03:23;18.00;99.90
30069;DHT22;16894;49.456;10.644;2022-07-29T16:05:49;18.10;99.90